createdAt,value
2018-12-04T00:00:18.001Z,991.90
2018-12-04T00:01:17.996Z,991.97
2018-12-04T00:02:17.991Z,991.94
2018-12-04T00:03:17.985Z,991.96
2018-12-04T00:04:17.952Z,992.02
2018-12-04T00:05:17.939Z,991.86
2018-12-04T00:06:17.937Z,992.03
2018-12-04T00:07:17.937Z,992.13
2018-12-04T00:08:17.919Z,992.01
2018-12-04T00:09:17.909Z,992.12
2018-12-04T00:10:17.889Z,992.12
2018-12-04T00:11:17.879Z,992.16
2018-12-04T00:12:17.881Z,992.19
2018-12-04T00:13:17.861Z,992.21
2018-12-04T00:14:17.859Z,992.21
2018-12-04T00:15:17.837Z,992.27
2018-12-04T00:16:17.836Z,992.30
2018-12-04T00:17:17.863Z,992.35
2018-12-04T00:18:17.812Z,992.37
2018-12-04T00:19:17.799Z,992.33
2018-12-04T00:20:17.782Z,992.45
2018-12-04T00:21:17.777Z,992.36
2018-12-04T00:22:17.766Z,992.44
2018-12-04T00:23:17.761Z,992.48
2018-12-04T00:24:17.741Z,992.56
2018-12-04T00:25:17.722Z,992.56
2018-12-04T00:26:17.734Z,992.68
2018-12-04T00:27:17.712Z,992.62
2018-12-04T00:28:17.710Z,992.65
2018-12-04T00:29:17.682Z,992.60
2018-12-04T00:30:17.667Z,992.69
2018-12-04T00:31:17.659Z,992.72
2018-12-04T00:32:17.650Z,992.73
2018-12-04T00:33:17.646Z,992.73
2018-12-04T00:34:17.651Z,992.74
2018-12-04T00:35:17.617Z,992.76
2018-12-04T00:36:17.605Z,992.80
2018-12-04T00:37:17.591Z,992.76
2018-12-04T00:38:17.594Z,992.86
2018-12-04T00:39:17.583Z,992.89
2018-12-04T00:40:17.568Z,992.86
2018-12-04T00:41:17.561Z,992.92
2018-12-04T00:42:17.536Z,992.92
2018-12-04T00:43:17.549Z,992.90
2018-12-04T00:44:17.523Z,993.00
2018-12-04T00:45:17.518Z,993.06
2018-12-04T00:46:17.511Z,993.12
2018-12-04T00:47:17.493Z,993.15
2018-12-04T00:48:17.498Z,993.14
2018-12-04T00:49:17.479Z,993.20
2018-12-04T00:50:17.495Z,993.30
2018-12-04T00:51:17.438Z,993.32
2018-12-04T00:52:17.435Z,993.38
2018-12-04T00:53:17.437Z,993.36
2018-12-04T00:54:17.419Z,993.45
2018-12-04T00:55:17.406Z,993.41
2018-12-04T00:56:17.386Z,993.60
2018-12-04T00:57:17.378Z,993.54
2018-12-04T00:58:17.379Z,993.55
2018-12-04T00:59:17.374Z,993.61
2018-12-04T01:00:17.341Z,993.68
2018-12-04T01:01:17.331Z,993.77
2018-12-04T01:02:17.329Z,993.83
2018-12-04T01:03:17.320Z,993.87
2018-12-04T01:04:17.318Z,993.88
2018-12-04T01:05:17.295Z,993.91
2018-12-04T01:06:17.280Z,993.87
2018-12-04T01:07:17.272Z,993.98
2018-12-04T01:08:17.265Z,993.93
2018-12-04T01:09:17.260Z,993.96
2018-12-04T01:10:17.240Z,994.03
2018-12-04T01:11:17.220Z,994.06
2018-12-04T01:12:17.226Z,994.08
2018-12-04T01:13:17.206Z,994.16
2018-12-04T01:14:17.204Z,994.16
2018-12-04T01:15:17.179Z,994.16
2018-12-04T01:16:17.194Z,994.29
2018-12-04T01:17:17.161Z,994.24
2018-12-04T01:18:17.152Z,994.25
2018-12-04T01:19:17.143Z,994.30
2018-12-04T01:20:17.131Z,994.40
2018-12-04T01:21:17.131Z,994.46
2018-12-04T01:22:17.109Z,994.45
2018-12-04T01:23:17.092Z,994.49
2018-12-04T01:24:17.101Z,994.56
2018-12-04T01:25:17.105Z,994.65
2018-12-04T01:26:17.066Z,994.67
2018-12-04T01:27:17.067Z,994.72
2018-12-04T01:28:17.036Z,994.77
2018-12-04T01:29:17.032Z,994.79
2018-12-04T01:30:17.020Z,994.78
2018-12-04T01:31:17.014Z,994.86
2018-12-04T01:32:17.006Z,994.88
2018-12-04T01:33:16.986Z,994.87
2018-12-04T01:34:16.978Z,994.90
2018-12-04T01:35:16.981Z,994.86
2018-12-04T01:36:16.959Z,994.93
2018-12-04T01:37:16.958Z,994.91
2018-12-04T01:38:16.942Z,994.94
2018-12-04T01:39:16.926Z,994.97
2018-12-04T01:40:16.905Z,995.02
2018-12-04T01:41:16.899Z,995.05
2018-12-04T01:42:16.899Z,995.13
2018-12-04T01:43:16.882Z,995.13
2018-12-04T01:44:16.870Z,995.19
2018-12-04T01:45:16.859Z,995.20
2018-12-04T01:46:16.849Z,995.24
2018-12-04T01:47:16.851Z,995.22
2018-12-04T01:48:16.839Z,995.31
2018-12-04T01:49:16.812Z,995.27
2018-12-04T01:50:16.800Z,995.40
2018-12-04T01:51:16.795Z,995.40
2018-12-04T01:52:16.788Z,995.46
2018-12-04T01:53:16.764Z,995.44
2018-12-04T01:54:16.754Z,995.49
2018-12-04T01:55:16.742Z,995.47
2018-12-04T01:56:16.741Z,995.52
2018-12-04T01:57:16.737Z,995.53
2018-12-04T01:58:16.732Z,995.55
2018-12-04T01:59:16.704Z,995.56
2018-12-04T02:00:16.691Z,995.58
2018-12-04T02:01:16.688Z,995.67
2018-12-04T02:02:16.677Z,995.61
2018-12-04T02:03:16.664Z,995.73
2018-12-04T02:04:16.646Z,995.72
2018-12-04T02:05:16.635Z,995.79
2018-12-04T02:06:16.641Z,995.75
2018-12-04T02:07:16.612Z,995.77
2018-12-04T02:08:16.611Z,995.73
2018-12-04T02:09:16.600Z,995.74
2018-12-04T02:10:16.588Z,995.79
2018-12-04T02:11:16.603Z,995.75
2018-12-04T02:12:16.569Z,995.79
2018-12-04T02:13:16.576Z,995.82
2018-12-04T02:14:16.552Z,995.88
2018-12-04T02:15:16.522Z,995.89
2018-12-04T02:16:16.522Z,995.90
2018-12-04T02:17:16.520Z,995.85
2018-12-04T02:18:16.493Z,995.85
2018-12-04T02:19:16.483Z,995.88
2018-12-04T02:20:16.490Z,995.85
2018-12-04T02:21:16.491Z,995.89
2018-12-04T02:22:16.482Z,995.86
2018-12-04T02:23:16.456Z,995.94
2018-12-04T02:24:16.424Z,995.90
2018-12-04T02:25:16.418Z,995.91
2018-12-04T02:26:16.406Z,995.98
2018-12-04T02:27:16.408Z,996.00
2018-12-04T02:28:16.393Z,996.02
2018-12-04T02:29:16.376Z,996.05
2018-12-04T02:30:16.368Z,996.10
2018-12-04T02:31:16.359Z,996.08
2018-12-04T02:32:16.338Z,996.14
2018-12-04T02:33:16.346Z,996.16
2018-12-04T02:34:16.350Z,996.15
2018-12-04T02:35:16.317Z,996.24
2018-12-04T02:36:16.302Z,996.28
2018-12-04T02:37:16.306Z,996.29
2018-12-04T02:38:16.279Z,996.35
2018-12-04T02:39:16.275Z,996.37
2018-12-04T02:40:16.261Z,996.42
2018-12-04T02:41:16.268Z,996.31
2018-12-04T02:42:16.239Z,996.32
2018-12-04T02:43:16.234Z,996.32
2018-12-04T02:44:16.230Z,996.39
2018-12-04T02:45:16.211Z,996.41
2018-12-04T02:46:16.193Z,996.41
2018-12-04T02:47:16.192Z,996.46
2018-12-04T02:48:16.185Z,996.48
2018-12-04T02:49:16.161Z,996.46
2018-12-04T02:50:16.147Z,996.45
2018-12-04T02:51:16.134Z,996.51
2018-12-04T02:52:16.151Z,996.53
2018-12-04T02:53:16.122Z,996.59
2018-12-04T02:54:16.119Z,996.54
2018-12-04T02:55:16.102Z,996.58
2018-12-04T02:56:16.081Z,996.64
2018-12-04T02:57:16.084Z,996.68
2018-12-04T02:58:16.077Z,996.70
2018-12-04T02:59:16.054Z,996.75
2018-12-04T03:00:16.047Z,996.75
2018-12-04T03:01:16.049Z,996.75
2018-12-04T03:02:16.023Z,996.77
2018-12-04T03:03:16.022Z,996.78
2018-12-04T03:04:16.010Z,996.79
2018-12-04T03:05:15.989Z,996.84
2018-12-04T03:06:15.981Z,996.86
2018-12-04T03:07:15.991Z,996.88
2018-12-04T03:08:15.951Z,996.90
2018-12-04T03:09:15.941Z,996.89
2018-12-04T03:10:15.947Z,996.89
2018-12-04T03:11:15.958Z,996.92
2018-12-04T03:12:15.939Z,996.90
2018-12-04T03:13:15.942Z,996.95
2018-12-04T03:14:15.921Z,996.93
2018-12-04T03:15:15.909Z,996.97
2018-12-04T03:16:15.872Z,996.99
2018-12-04T03:17:15.858Z,997.02
2018-12-04T03:18:15.847Z,997.01
2018-12-04T03:19:15.837Z,997.04
2018-12-04T03:20:15.841Z,997.02
2018-12-04T03:21:15.832Z,997.05
2018-12-04T03:22:15.799Z,997.15
2018-12-04T03:23:15.791Z,997.13
2018-12-04T03:24:15.817Z,997.17
2018-12-04T03:25:15.784Z,997.18
2018-12-04T03:26:15.785Z,997.19
2018-12-04T03:27:15.764Z,997.20
2018-12-04T03:28:15.737Z,997.25
2018-12-04T03:29:15.727Z,997.30
2018-12-04T03:30:15.717Z,997.34
2018-12-04T03:31:15.708Z,997.35
2018-12-04T03:32:15.696Z,997.34
2018-12-04T03:33:15.695Z,997.40
2018-12-04T03:34:15.698Z,997.38
2018-12-04T03:35:15.678Z,997.41
2018-12-04T03:36:15.643Z,997.41
2018-12-04T03:37:15.641Z,997.44
2018-12-04T03:38:15.628Z,997.51
2018-12-04T03:39:15.630Z,997.50
2018-12-04T03:40:15.611Z,997.55
2018-12-04T03:41:15.591Z,997.60
2018-12-04T03:42:15.585Z,997.58
2018-12-04T03:43:15.585Z,997.62
2018-12-04T03:44:15.564Z,997.64
2018-12-04T03:45:15.564Z,997.67
2018-12-04T03:46:15.555Z,997.71
2018-12-04T03:47:15.535Z,997.71
2018-12-04T03:48:15.531Z,997.73
2018-12-04T03:49:15.509Z,997.73
2018-12-04T03:50:15.502Z,997.72
2018-12-04T03:51:15.481Z,997.75
2018-12-04T03:52:15.496Z,997.78
2018-12-04T03:53:15.488Z,997.75
2018-12-04T03:54:15.450Z,997.77
2018-12-04T03:55:15.438Z,997.75
2018-12-04T03:56:15.452Z,997.80
2018-12-04T03:57:15.422Z,997.78
2018-12-04T03:58:15.411Z,997.81
2018-12-04T03:59:15.401Z,997.83
2018-12-04T04:00:15.385Z,997.83
2018-12-04T04:01:15.394Z,997.84
2018-12-04T04:02:15.363Z,997.87
2018-12-04T04:03:15.362Z,997.85
2018-12-04T04:04:15.355Z,997.88
2018-12-04T04:05:15.332Z,997.85
2018-12-04T04:06:15.335Z,997.87
2018-12-04T04:07:15.326Z,997.89
2018-12-04T04:08:15.296Z,997.88
2018-12-04T04:09:15.295Z,997.92
2018-12-04T04:10:15.279Z,998.01
2018-12-04T04:11:15.271Z,997.99
2018-12-04T04:12:15.263Z,997.98
2018-12-04T04:13:15.245Z,997.98
2018-12-04T04:14:15.235Z,998.04
2018-12-04T04:15:15.222Z,998.07
2018-12-04T04:16:15.236Z,998.10
2018-12-04T04:17:15.217Z,998.10
2018-12-04T04:18:15.193Z,998.06
2018-12-04T04:19:15.186Z,998.12
2018-12-04T04:20:15.168Z,998.16
2018-12-04T04:21:15.164Z,998.16
2018-12-04T04:22:15.169Z,998.16
2018-12-04T04:23:15.132Z,998.24
2018-12-04T04:24:15.134Z,998.26
2018-12-04T04:25:15.137Z,998.27
2018-12-04T04:26:15.167Z,998.25
2018-12-04T04:27:15.094Z,998.32
2018-12-04T04:28:15.102Z,998.37
2018-12-04T04:29:15.083Z,998.39
2018-12-04T04:30:15.063Z,998.42
2018-12-04T04:31:15.057Z,998.40
2018-12-04T04:32:15.034Z,998.45
2018-12-04T04:33:15.035Z,998.40
2018-12-04T04:34:15.032Z,998.42
2018-12-04T04:35:15.004Z,998.41
2018-12-04T04:36:15.001Z,998.45
2018-12-04T04:37:14.986Z,998.47
2018-12-04T04:38:14.992Z,998.47
2018-12-04T04:39:14.990Z,998.52
2018-12-04T04:40:14.947Z,998.49
2018-12-04T04:41:14.940Z,998.52
2018-12-04T04:42:14.932Z,998.53
2018-12-04T04:43:14.938Z,998.54
2018-12-04T04:44:14.912Z,998.54
2018-12-04T04:45:14.898Z,998.59
2018-12-04T04:46:14.889Z,998.55
2018-12-04T04:47:14.873Z,998.55
2018-12-04T04:48:14.887Z,998.55
2018-12-04T04:49:14.860Z,998.56
2018-12-04T04:50:14.851Z,998.58
2018-12-04T04:51:14.839Z,998.63
2018-12-04T04:52:14.837Z,998.63
2018-12-04T04:53:14.811Z,998.70
2018-12-04T04:54:14.817Z,998.71
2018-12-04T04:55:14.786Z,998.72
2018-12-04T04:56:14.789Z,998.69
2018-12-04T04:57:14.769Z,998.72
2018-12-04T04:58:14.757Z,998.70
2018-12-04T04:59:14.757Z,998.71
2018-12-04T05:00:21.782Z,998.70
2018-12-04T05:01:14.739Z,998.77
2018-12-04T05:02:14.710Z,998.76
2018-12-04T05:03:14.702Z,998.75
2018-12-04T05:04:14.712Z,998.78
2018-12-04T05:05:14.690Z,998.79
2018-12-04T05:06:14.669Z,998.82
2018-12-04T05:07:14.658Z,998.83
2018-12-04T05:08:14.648Z,998.90
2018-12-04T05:09:14.634Z,998.90
2018-12-04T05:10:14.646Z,998.91
2018-12-04T05:11:14.654Z,998.94
2018-12-04T05:12:14.628Z,998.93
2018-12-04T05:13:14.595Z,998.95
2018-12-04T05:14:14.641Z,999.01
2018-12-04T05:15:14.578Z,999.02
2018-12-04T05:16:14.568Z,999.09
2018-12-04T05:17:14.570Z,999.10
2018-12-04T05:18:14.578Z,999.08
2018-12-04T05:19:14.534Z,999.13
2018-12-04T05:20:14.529Z,999.11
2018-12-04T05:21:14.522Z,999.14
2018-12-04T05:22:14.532Z,999.19
2018-12-04T05:23:14.522Z,999.24
2018-12-04T05:24:14.518Z,999.21
2018-12-04T05:25:14.505Z,999.23
2018-12-04T05:26:14.453Z,999.26
2018-12-04T05:27:14.470Z,999.32
2018-12-04T05:28:14.531Z,999.25
2018-12-04T05:29:14.427Z,999.32
2018-12-04T05:30:14.413Z,999.34
2018-12-04T05:31:14.402Z,999.38
2018-12-04T05:32:14.407Z,999.37
2018-12-04T05:33:14.378Z,999.32
2018-12-04T05:34:14.418Z,999.36
2018-12-04T05:35:14.362Z,999.37
2018-12-04T05:36:14.378Z,999.46
2018-12-04T05:37:14.363Z,999.45
2018-12-04T05:38:14.352Z,999.47
2018-12-04T05:39:14.314Z,999.45
2018-12-04T05:40:14.322Z,999.50
2018-12-04T05:41:14.355Z,999.55
2018-12-04T05:42:14.316Z,999.48
2018-12-04T05:43:14.288Z,999.53
2018-12-04T05:44:14.264Z,999.57
2018-12-04T05:45:14.264Z,999.59
2018-12-04T05:46:14.279Z,999.61
2018-12-04T05:47:14.234Z,999.64
2018-12-04T05:48:14.236Z,999.66
2018-12-04T05:49:14.211Z,999.69
2018-12-04T05:50:14.199Z,999.74
2018-12-04T05:51:14.223Z,999.74
2018-12-04T05:52:14.175Z,999.77
2018-12-04T05:53:14.161Z,999.77
2018-12-04T05:54:14.332Z,999.81
2018-12-04T05:55:14.159Z,999.82
2018-12-04T05:56:14.149Z,999.83
2018-12-04T05:57:14.140Z,999.92
2018-12-04T05:58:14.106Z,999.94
2018-12-04T05:59:14.112Z,1000.00
2018-12-04T06:00:14.123Z,1000.00
2018-12-04T06:01:14.093Z,999.99
2018-12-04T06:02:14.089Z,1000.05
2018-12-04T06:03:14.066Z,1000.03
2018-12-04T06:04:14.059Z,1000.02
2018-12-04T06:05:14.047Z,1000.03
2018-12-04T06:06:14.057Z,1000.14
2018-12-04T06:07:14.030Z,1000.09
2018-12-04T06:08:14.011Z,1000.11
2018-12-04T06:09:14.005Z,1000.09
2018-12-04T06:10:13.975Z,1000.11
2018-12-04T06:11:13.999Z,1000.13
2018-12-04T06:12:13.960Z,1000.16
2018-12-04T06:13:13.970Z,1000.22
2018-12-04T06:14:13.950Z,1000.22
2018-12-04T06:15:13.950Z,1000.24
2018-12-04T06:16:13.934Z,1000.29
2018-12-04T06:17:13.921Z,1000.38
2018-12-04T06:18:13.900Z,1000.42
2018-12-04T06:19:13.883Z,1000.45
2018-12-04T06:20:13.876Z,1000.51
2018-12-04T06:21:13.917Z,1000.54
2018-12-04T06:22:13.856Z,1000.53
2018-12-04T06:23:13.838Z,1000.62
2018-12-04T06:24:13.831Z,1000.61
2018-12-04T06:25:13.827Z,1000.64
2018-12-04T06:26:13.841Z,1000.64
2018-12-04T06:27:13.811Z,1000.67
2018-12-04T06:28:13.791Z,1000.70
2018-12-04T06:29:13.787Z,1000.73
2018-12-04T06:30:13.764Z,1000.71
2018-12-04T06:31:13.759Z,1000.74
2018-12-04T06:32:13.791Z,1000.73
2018-12-04T06:33:13.734Z,1000.76
2018-12-04T06:34:13.716Z,1000.77
2018-12-04T06:35:13.747Z,1000.75
2018-12-04T06:36:13.708Z,1000.74
2018-12-04T06:37:13.701Z,1000.79
2018-12-04T06:38:13.695Z,1000.82
2018-12-04T06:39:13.671Z,1000.85
2018-12-04T06:40:13.655Z,1000.90
2018-12-04T06:41:13.646Z,1000.92
2018-12-04T06:42:13.644Z,1000.92
2018-12-04T06:43:13.670Z,1000.90
2018-12-04T06:44:13.631Z,1000.92
2018-12-04T06:45:13.619Z,1000.98
2018-12-04T06:46:13.600Z,1000.96
2018-12-04T06:47:13.600Z,1001.04
2018-12-04T06:48:13.576Z,1001.09
2018-12-04T06:49:13.579Z,1001.07
2018-12-04T06:50:13.551Z,1001.10
2018-12-04T06:51:13.557Z,1001.14
2018-12-04T06:52:13.528Z,1001.15
2018-12-04T06:53:13.551Z,1001.20
2018-12-04T06:54:13.500Z,1001.24
2018-12-04T06:55:13.489Z,1001.27
2018-12-04T06:56:13.507Z,1001.31
2018-12-04T06:57:13.470Z,1001.33
2018-12-04T06:58:13.489Z,1001.40
2018-12-04T06:59:13.475Z,1001.45
2018-12-04T07:00:13.453Z,1001.47
2018-12-04T07:01:13.438Z,1001.49
2018-12-04T07:02:13.418Z,1001.47
2018-12-04T07:03:13.425Z,1001.52
2018-12-04T07:04:13.400Z,1001.51
2018-12-04T07:05:13.402Z,1001.52
2018-12-04T07:06:13.373Z,1001.50
2018-12-04T07:07:13.364Z,1001.53
2018-12-04T07:08:13.365Z,1001.55
2018-12-04T07:09:13.355Z,1001.58
2018-12-04T07:10:13.344Z,1001.61
2018-12-04T07:11:13.339Z,1001.61
2018-12-04T07:12:13.309Z,1001.69
2018-12-04T07:13:13.321Z,1001.69
2018-12-04T07:14:13.284Z,1001.74
2018-12-04T07:15:13.289Z,1001.75
2018-12-04T07:16:13.266Z,1001.79
2018-12-04T07:17:13.264Z,1001.81
2018-12-04T07:18:13.281Z,1001.83
2018-12-04T07:19:13.244Z,1001.86
2018-12-04T07:20:13.241Z,1001.89
2018-12-04T07:21:13.209Z,1001.90
2018-12-04T07:22:13.217Z,1001.95
2018-12-04T07:23:13.203Z,1001.91
2018-12-04T07:24:13.199Z,1001.97
2018-12-04T07:25:13.175Z,1002.02
2018-12-04T07:26:13.154Z,1002.02
2018-12-04T07:27:13.170Z,1002.01
2018-12-04T07:28:13.133Z,1002.05
2018-12-04T07:29:13.144Z,1002.06
2018-12-04T07:30:13.121Z,1002.04
2018-12-04T07:31:13.127Z,1002.10
2018-12-04T07:32:13.111Z,1002.12
2018-12-04T07:33:13.088Z,1002.18
2018-12-04T07:34:13.082Z,1002.20
2018-12-04T07:35:13.062Z,1002.22
2018-12-04T07:36:13.051Z,1002.23
2018-12-04T07:37:13.040Z,1002.29
2018-12-04T07:38:13.035Z,1002.29
2018-12-04T07:39:13.033Z,1002.34
2018-12-04T07:40:13.021Z,1002.34
2018-12-04T07:41:12.989Z,1002.40
2018-12-04T07:42:13.003Z,1002.38
2018-12-04T07:43:12.974Z,1002.41
2018-12-04T07:44:12.967Z,1002.46
2018-12-04T07:45:12.980Z,1002.44
2018-12-04T07:46:12.949Z,1002.54
2018-12-04T07:47:12.931Z,1002.54
2018-12-04T07:48:12.942Z,1002.51
2018-12-04T07:49:12.920Z,1002.55
2018-12-04T07:50:12.920Z,1002.55
2018-12-04T07:51:12.893Z,1002.59
2018-12-04T07:52:12.881Z,1002.61
2018-12-04T07:53:12.863Z,1002.63
2018-12-04T07:54:12.874Z,1002.68
2018-12-04T07:55:12.865Z,1002.69
2018-12-04T07:56:12.838Z,1002.69
2018-12-04T07:57:12.844Z,1002.74
2018-12-04T07:58:12.811Z,1002.72
2018-12-04T07:59:12.804Z,1002.74
2018-12-04T08:00:12.791Z,1002.77
2018-12-04T08:01:12.784Z,1002.83
2018-12-04T08:02:12.775Z,1002.84
2018-12-04T08:03:12.809Z,1002.87
2018-12-04T08:04:12.825Z,1002.90
2018-12-04T08:05:12.739Z,1002.90
2018-12-04T08:06:12.740Z,1002.92
2018-12-04T08:07:12.718Z,1002.88
2018-12-04T08:08:12.707Z,1002.89
2018-12-04T08:09:12.696Z,1002.96
2018-12-04T08:10:12.693Z,1002.93
2018-12-04T08:11:12.666Z,1003.00
2018-12-04T08:12:12.666Z,1003.06
2018-12-04T08:13:12.667Z,1003.12
2018-12-04T08:14:12.651Z,1003.12
2018-12-04T08:15:12.628Z,1003.16
2018-12-04T08:16:12.636Z,1003.21
2018-12-04T08:17:12.660Z,1003.24
2018-12-04T08:18:12.610Z,1003.29
2018-12-04T08:19:12.600Z,1003.29
2018-12-04T08:20:12.580Z,1003.33
2018-12-04T08:21:12.557Z,1003.34
2018-12-04T08:22:12.561Z,1003.36
2018-12-04T08:23:12.583Z,1003.40
2018-12-04T08:24:12.533Z,1003.43
2018-12-04T08:25:12.524Z,1003.45
2018-12-04T08:26:12.523Z,1003.45
2018-12-04T08:27:12.543Z,1003.49
2018-12-04T08:28:12.502Z,1003.46
2018-12-04T08:29:12.481Z,1003.53
2018-12-04T08:30:12.483Z,1003.51
2018-12-04T08:31:12.490Z,1003.53
2018-12-04T08:32:12.438Z,1003.54
2018-12-04T08:33:12.450Z,1003.52
2018-12-04T08:34:12.442Z,1003.55
2018-12-04T08:35:12.427Z,1003.52
2018-12-04T08:36:12.399Z,1003.73
2018-12-04T08:37:12.394Z,1003.63
2018-12-04T08:38:12.423Z,1003.60
2018-12-04T08:39:13.202Z,1003.56
2018-12-04T08:40:12.379Z,1003.55
2018-12-04T08:41:12.349Z,1003.57
2018-12-04T08:42:12.345Z,1003.58
2018-12-04T08:43:12.336Z,1003.63
2018-12-04T08:44:12.318Z,1003.72
2018-12-04T08:45:12.295Z,1003.75
2018-12-04T08:46:12.336Z,1003.63
2018-12-04T08:47:12.282Z,1003.59
2018-12-04T08:48:12.280Z,1003.56
2018-12-04T08:49:12.275Z,1003.61
2018-12-04T08:50:12.249Z,1003.66
2018-12-04T08:51:12.238Z,1003.67
2018-12-04T08:52:12.222Z,1003.72
2018-12-04T08:53:12.264Z,1003.79
2018-12-04T08:54:12.211Z,1003.77
2018-12-04T08:55:12.191Z,1003.83
2018-12-04T08:56:12.197Z,1003.81
2018-12-04T08:57:12.214Z,1003.86
2018-12-04T08:58:12.164Z,1003.93
2018-12-04T08:59:12.154Z,1003.95
2018-12-04T09:00:12.151Z,1004.00
2018-12-04T09:01:12.132Z,1004.02
2018-12-04T09:02:12.137Z,1004.06
2018-12-04T09:03:12.115Z,1004.07
2018-12-04T09:04:12.144Z,1004.10
2018-12-04T09:05:12.115Z,1004.11
2018-12-04T09:06:12.115Z,1004.16
2018-12-04T09:07:12.075Z,1004.22
2018-12-04T09:08:12.059Z,1004.24
2018-12-04T09:09:12.053Z,1004.25
2018-12-04T09:10:12.024Z,1004.20
2018-12-04T09:11:12.016Z,1004.28
2018-12-04T09:12:12.049Z,1004.23
2018-12-04T09:13:12.057Z,1004.25
2018-12-04T09:14:11.978Z,1004.33
2018-12-04T09:15:11.979Z,1004.37
2018-12-04T09:16:11.972Z,1004.46
2018-12-04T09:17:11.957Z,1004.47
2018-12-04T09:18:11.995Z,1004.50
2018-12-04T09:19:11.955Z,1004.52
2018-12-04T09:20:11.965Z,1004.56
2018-12-04T09:21:11.945Z,1004.53
2018-12-04T09:22:11.904Z,1004.56
2018-12-04T09:23:11.943Z,1004.57
2018-12-04T09:24:11.955Z,1004.64
2018-12-04T09:25:11.913Z,1004.64
2018-12-04T09:26:11.876Z,1004.65
2018-12-04T09:27:11.859Z,1004.69
2018-12-04T09:28:11.902Z,1004.68
2018-12-04T09:29:11.857Z,1004.74
2018-12-04T09:30:11.812Z,1004.76
2018-12-04T09:31:11.832Z,1004.77
2018-12-04T09:32:11.802Z,1004.79
2018-12-04T09:33:11.783Z,1004.81
2018-12-04T09:34:11.768Z,1004.84
2018-12-04T09:35:11.792Z,1004.92
2018-12-04T09:36:11.739Z,1004.92
2018-12-04T09:37:11.746Z,1004.95
2018-12-04T09:38:11.732Z,1004.95
2018-12-04T09:39:11.723Z,1004.99
2018-12-04T09:40:11.738Z,1004.99
2018-12-04T09:41:11.706Z,1005.00
2018-12-04T09:42:11.680Z,1005.01
2018-12-04T09:43:11.671Z,1005.07
2018-12-04T09:44:11.666Z,1005.06
2018-12-04T09:45:11.662Z,1005.05
2018-12-04T09:46:11.654Z,1005.07
2018-12-04T09:47:11.635Z,1005.13
2018-12-04T09:48:11.611Z,1005.16
2018-12-04T09:49:11.623Z,1005.14
2018-12-04T09:50:11.596Z,1005.21
2018-12-04T09:51:11.602Z,1005.25
2018-12-04T09:52:11.577Z,1005.25
2018-12-04T09:53:11.578Z,1005.23
2018-12-04T09:54:11.548Z,1005.28
2018-12-04T09:55:11.537Z,1005.31
2018-12-04T09:56:11.535Z,1005.27
2018-12-04T09:57:11.541Z,1005.27
2018-12-04T09:58:11.527Z,1005.29
2018-12-04T09:59:11.527Z,1005.27
2018-12-04T10:00:11.482Z,1005.26
2018-12-04T10:01:11.478Z,1005.26
2018-12-04T10:02:11.487Z,1005.32
2018-12-04T10:03:11.459Z,1005.25
2018-12-04T10:04:11.451Z,1005.26
2018-12-04T10:05:11.429Z,1005.30
2018-12-04T10:06:11.439Z,1005.30
2018-12-04T10:07:11.401Z,1005.35
2018-12-04T10:08:11.402Z,1005.44
2018-12-04T10:09:11.384Z,1005.38
2018-12-04T10:10:11.408Z,1005.38
2018-12-04T10:11:11.395Z,1005.43
2018-12-04T10:12:11.372Z,1005.42
2018-12-04T10:13:11.354Z,1005.44
2018-12-04T10:14:11.326Z,1005.47
2018-12-04T10:15:11.312Z,1005.52
2018-12-04T10:16:11.321Z,1005.52
2018-12-04T10:17:11.306Z,1005.51
2018-12-04T10:18:11.317Z,1005.53
2018-12-04T10:19:11.274Z,1005.53
2018-12-04T10:20:11.271Z,1005.53
2018-12-04T10:21:11.272Z,1005.59
2018-12-04T10:22:11.253Z,1005.53
2018-12-04T10:23:11.233Z,1005.53
2018-12-04T10:24:11.228Z,1005.60
2018-12-04T10:25:11.230Z,1005.63
2018-12-04T10:26:11.214Z,1005.65
2018-12-04T10:27:11.214Z,1005.62
2018-12-04T10:28:11.173Z,1005.66
2018-12-04T10:29:11.163Z,1005.66
2018-12-04T10:30:11.173Z,1005.71
2018-12-04T10:31:11.154Z,1005.71
2018-12-04T10:32:11.132Z,1005.65
2018-12-04T10:33:11.127Z,1005.67
2018-12-04T10:34:11.110Z,1005.66
2018-12-04T10:35:11.135Z,1005.74
2018-12-04T10:36:11.120Z,1005.78
2018-12-04T10:37:11.081Z,1005.77
2018-12-04T10:38:11.062Z,1005.76
2018-12-04T10:39:11.069Z,1005.78
2018-12-04T10:40:11.053Z,1005.73
2018-12-04T10:41:11.050Z,1005.71
2018-12-04T10:42:11.024Z,1005.72
2018-12-04T10:43:11.024Z,1005.79
2018-12-04T10:44:11.009Z,1005.81
2018-12-04T10:45:11.046Z,1005.81
2018-12-04T10:46:10.980Z,1005.83
2018-12-04T10:47:10.973Z,1005.80
2018-12-04T10:48:10.965Z,1005.82
2018-12-04T10:49:10.949Z,1005.82
2018-12-04T10:50:10.945Z,1005.78
2018-12-04T10:51:10.918Z,1005.80
2018-12-04T10:52:10.911Z,1005.81
2018-12-04T10:53:10.920Z,1005.82
2018-12-04T10:54:10.891Z,1005.85
2018-12-04T10:55:10.897Z,1005.83
2018-12-04T10:56:10.881Z,1005.75
2018-12-04T10:57:10.859Z,1005.78
2018-12-04T10:58:10.847Z,1005.81
2018-12-04T10:59:10.828Z,1005.82
2018-12-04T11:00:10.850Z,1005.84
2018-12-04T11:01:10.817Z,1005.89
2018-12-04T11:02:10.820Z,1005.81
2018-12-04T11:03:10.831Z,1005.81
2018-12-04T11:04:10.783Z,1005.83
2018-12-04T11:05:10.767Z,1005.86
2018-12-04T11:06:10.787Z,1005.89
2018-12-04T11:07:10.754Z,1005.88
2018-12-04T11:08:10.749Z,1005.87
2018-12-04T11:09:10.742Z,1005.88
2018-12-04T11:10:10.742Z,1005.91
2018-12-04T11:11:10.711Z,1005.91
2018-12-04T11:12:12.372Z,1005.98
2018-12-04T11:13:10.699Z,1005.94
2018-12-04T11:14:10.690Z,1005.94
2018-12-04T11:15:10.673Z,1005.96
2018-12-04T11:16:10.667Z,1005.95
2018-12-04T11:17:10.637Z,1005.95
2018-12-04T11:18:10.629Z,1005.96
2018-12-04T11:19:10.615Z,1006.02
2018-12-04T11:20:10.657Z,1006.00
2018-12-04T11:21:10.594Z,1006.01
2018-12-04T11:22:10.584Z,1006.04
2018-12-04T11:23:10.565Z,1006.01
2018-12-04T11:24:10.586Z,1006.01
2018-12-04T11:25:10.567Z,1006.01
2018-12-04T11:26:10.563Z,1006.08
2018-12-04T11:27:10.544Z,1006.10
2018-12-04T11:28:10.523Z,1006.13
2018-12-04T11:29:10.521Z,1006.08
2018-12-04T11:30:10.495Z,1006.06
2018-12-04T11:31:10.509Z,1006.11
2018-12-04T11:32:10.470Z,1006.14
2018-12-04T11:33:10.480Z,1006.13
2018-12-04T11:34:10.499Z,1006.15
2018-12-04T11:35:10.443Z,1006.15
2018-12-04T11:36:10.428Z,1006.18
2018-12-04T11:37:10.457Z,1006.24
2018-12-04T11:38:10.450Z,1006.24
2018-12-04T11:39:10.416Z,1006.22
2018-12-04T11:40:10.390Z,1006.25
2018-12-04T11:41:10.383Z,1006.28
2018-12-04T11:42:10.366Z,1006.28
2018-12-04T11:43:10.354Z,1006.30
2018-12-04T11:44:10.354Z,1006.28
2018-12-04T11:45:10.343Z,1006.37
2018-12-04T11:46:10.328Z,1006.33
2018-12-04T11:47:10.316Z,1006.33
2018-12-04T11:48:10.305Z,1006.31
2018-12-04T11:49:10.291Z,1006.34
2018-12-04T11:50:10.303Z,1006.34
2018-12-04T11:51:10.261Z,1006.29
2018-12-04T11:52:10.296Z,1006.34
2018-12-04T11:53:10.246Z,1006.31
2018-12-04T11:54:10.235Z,1006.28
2018-12-04T11:55:10.241Z,1006.33
2018-12-04T11:56:10.208Z,1006.36
2018-12-04T11:57:10.229Z,1006.37
2018-12-04T11:58:10.208Z,1006.31
2018-12-04T11:59:10.188Z,1006.35
2018-12-04T12:00:10.219Z,1006.33
2018-12-04T12:01:10.159Z,1006.43
2018-12-04T12:02:10.890Z,1006.45
2018-12-04T12:03:10.131Z,1006.49
2018-12-04T12:04:10.140Z,1006.51
2018-12-04T12:05:10.128Z,1006.54
2018-12-04T12:06:10.116Z,1006.59
2018-12-04T12:07:10.138Z,1006.61
2018-12-04T12:08:10.109Z,1006.68
2018-12-04T12:09:10.078Z,1006.79
2018-12-04T12:10:10.070Z,1006.70
2018-12-04T12:11:10.059Z,1006.63
2018-12-04T12:12:10.052Z,1006.58
2018-12-04T12:13:10.047Z,1006.55
2018-12-04T12:14:10.015Z,1006.54
2018-12-04T12:15:10.008Z,1006.54
2018-12-04T12:16:09.998Z,1006.64